Acosta, PA (15520)

6:19 AM EDT on May 22, 2015 (GMT -0400)
APRSWXNET | | Change Station
CLOSE
Current Station
Personal Weather Station
Location: Sipesville, PA
Elevation: 1970 ft
Nearby Weather Stations
Active Advisory: Frost Advisory

Elev 1970 ft 40.12 °N, 79.10 °W | Updated 47 minutes ago

Clear
Clear
44 °F
Feels Like 42 °F
N
4
Wind Variable Wind from West
Gusts 10.0 mph

Today
High -- | Low -- °F
--% Chance of Precip.
Yesterday
High -- | Low -- °F
Precip. -- in
5:55 AM 8:31 PM
Waxing Crescent, 20% visible
Pressure 30.07 in
Visibility 10.0 miles
Clouds Clear
Windchill 42 °F
Dew Point 41 °F
Humidity 88%
Rainfall in
Snow Depth Not available.
UV 0 out of 12
Pollen 5.90 out of 12
Air Quality Not available.
Flu Activity Sporadic
METAR KJST 220954Z AUTO 24008KT 10SM CLR 05/03 A3004 RMK AO2 SLP182 T00500028

More Conditions Fewer Conditions

Pressure 30.07 in
Visibility 10.0 miles
Clouds Clear
Windchill 42 °F
Dew Point 41 °F
Humidity 88%
Rainfall in
Snow Depth Not available.
UV 0 out of 12
Pollen 5.90 out of 12
Air Quality Not available.
Flu Activity Sporadic
METAR KJST 220954Z AUTO 24008KT 10SM CLR 05/03 A3004 RMK AO2 SLP182 T00500028

More Conditions Fewer Conditions

10-Day Weather Forecast

Almanac

Astronomy

May. 22, 2015 Rise Set
Actual Time
Civil Twilight
Nautical Twilight
Astronomical Twilight
Moon
Length of Visible Light
Length of Day
Tomorrow will be .
, % of the Moon is Illuminated

Today's Extremes

State Highs State Lows

Community

WunderPhotos

Upload Photos

1,823,197 photos uploaded!

WunderBlogs® & News

Nearby

Air Quality

  Air Quality AQ Index Pollutant
Not available.

Snow Depth

Station Depth Elevation

Earthquake Activity

City Distance Mag. Time & Date
Minimum magnitude displayed is 2.5.

Coastal Water Temperatures

Place Temperature

Stations

Nearby Weather Stations

Station Location Temp. Windchill Dew Point Humidity Wind Precip. Elev Updated Type
                   
Frost Advisory
Statement as of 5:20 AM EDT on May 22, 2015

... Frost advisory remains in effect from midnight tonight to 7 am
EDT Saturday...

* temperatures... lows in the mid 30s.

* Timing... early Saturday morning.

* Impacts... possible damage to sensitive plants.

Precautionary/preparedness actions...

A frost advisory is issued when widespread frost is expected to
develop during the growing season. Those with agricultural or
gardening interests in the advisory area should protect sensitive
plants and crops. Potted plants normally left outdoors should be
covered or brought inside.